createdAt,value
2022-08-05T00:02:30.237Z,3.20
2022-08-05T00:06:35.882Z,2.90
2022-08-05T00:10:40.051Z,3.10
2022-08-05T00:14:42.795Z,3.40
2022-08-05T00:18:48.227Z,3.65
2022-08-05T00:22:57.450Z,3.45
2022-08-05T00:27:10.513Z,3.33
2022-08-05T00:31:53.458Z,3.92
2022-08-05T00:35:48.009Z,3.75
2022-08-05T00:40:06.111Z,4.20
2022-08-05T00:44:13.498Z,4.38
2022-08-05T00:48:17.650Z,4.50
2022-08-05T00:52:31.009Z,4.85
2022-08-05T00:56:33.561Z,4.60
2022-08-05T01:00:37.534Z,4.57
2022-08-05T01:04:42.188Z,4.78
2022-08-05T01:08:46.374Z,4.47
2022-08-05T01:13:05.080Z,4.88
2022-08-05T01:17:25.368Z,4.78
2022-08-05T01:21:50.652Z,4.63
2022-08-05T01:26:08.272Z,5.07
2022-08-05T01:30:18.851Z,5.10
2022-08-05T01:34:27.125Z,5.63
2022-08-05T01:38:31.479Z,5.40
2022-08-05T01:42:35.625Z,5.80
2022-08-05T01:46:42.467Z,5.78
2022-08-05T01:50:50.940Z,6.05
2022-08-05T01:54:58.177Z,6.60
2022-08-05T01:59:07.310Z,7.43
2022-08-05T02:03:24.256Z,7.22
2022-08-05T02:07:35.487Z,7.03
2022-08-05T02:11:48.032Z,7.45
2022-08-05T02:15:59.930Z,7.18
2022-08-05T02:20:07.602Z,7.13
2022-08-05T02:24:17.948Z,7.57
2022-08-05T02:28:29.010Z,5.82
2022-08-05T02:32:35.947Z,5.55
2022-08-05T02:36:50.049Z,5.50
2022-08-05T02:40:54.349Z,5.97
2022-08-05T02:44:58.663Z,6.07
2022-08-05T02:49:01.265Z,5.95
2022-08-05T02:53:06.651Z,7.05
2022-08-05T02:58:10.567Z,5.97
2022-08-05T03:01:41.211Z,6.40
2022-08-05T03:06:54.183Z,6.80
2022-08-05T03:10:11.033Z,6.60
2022-08-05T03:14:15.943Z,6.75
2022-08-05T03:18:29.863Z,6.70
2022-08-05T03:22:32.858Z,6.53
2022-08-05T03:26:38.243Z,6.28
2022-08-05T03:30:42.466Z,5.88
2022-08-05T03:34:50.643Z,6.10
2022-08-05T03:38:54.031Z,6.18
2022-08-05T03:42:57.888Z,6.65
2022-08-05T03:47:00.636Z,6.63
2022-08-05T03:52:36.467Z,7.47
2022-08-05T03:56:05.119Z,7.38
2022-08-05T04:00:08.688Z,5.25
2022-08-05T04:08:35.197Z,4.82
2022-08-05T04:16:42.683Z,4.68
2022-08-05T04:20:45.243Z,4.22
2022-08-05T04:24:53.010Z,4.78
2022-08-05T04:28:55.696Z,3.78
2022-08-05T04:33:00.531Z,4.35
2022-08-05T04:37:04.835Z,4.10
2022-08-05T04:41:10.033Z,3.53
2022-08-05T04:45:14.136Z,2.80
2022-08-05T04:49:38.426Z,2.72
2022-08-05T04:53:49.705Z,2.70
2022-08-05T04:57:54.198Z,2.97
2022-08-05T05:02:35.272Z,2.83
2022-08-05T05:06:38.686Z,3.05
2022-08-05T05:10:47.297Z,3.08
2022-08-05T05:14:58.720Z,3.05
2022-08-05T05:19:18.845Z,3.10
2022-08-05T05:23:23.431Z,2.83
2022-08-05T05:27:41.323Z,2.60
2022-08-05T05:31:46.178Z,2.80
2022-08-05T05:35:49.511Z,2.33
2022-08-05T05:39:53.436Z,2.92
2022-08-05T05:44:00.503Z,2.95
2022-08-05T05:48:08.088Z,2.95
2022-08-05T05:52:20.211Z,3.50
2022-08-05T05:56:34.773Z,3.03
2022-08-05T06:00:37.575Z,2.88
2022-08-05T06:04:41.413Z,2.53
2022-08-05T06:08:49.120Z,2.83
2022-08-05T06:12:53.309Z,2.80
2022-08-05T06:16:55.824Z,2.92
2022-08-05T06:21:00.356Z,2.72
2022-08-05T06:25:24.504Z,3.17
2022-08-05T06:29:46.609Z,3.00
2022-08-05T06:34:08.045Z,2.70
2022-08-05T06:38:12.023Z,2.83
2022-08-05T06:46:22.076Z,3.20
2022-08-05T06:50:32.493Z,3.45
2022-08-05T06:54:35.966Z,3.22
2022-08-05T06:58:38.857Z,3.45
2022-08-05T07:02:47.031Z,3.42
2022-08-05T07:06:56.398Z,2.97
2022-08-05T07:11:00.760Z,3.35
2022-08-05T07:15:34.640Z,2.50
2022-08-05T07:24:11.257Z,2.85
2022-08-05T07:28:17.258Z,2.50
2022-08-05T07:32:26.079Z,2.70
2022-08-05T07:36:30.911Z,1.98
2022-08-05T07:40:33.519Z,2.10
2022-08-05T07:44:38.135Z,2.30
2022-08-05T07:49:02.270Z,2.45
2022-08-05T07:57:17.678Z,2.40
2022-08-05T08:01:32.143Z,2.35
2022-08-05T08:05:39.833Z,2.13
2022-08-05T08:09:44.580Z,1.85
2022-08-05T08:13:49.606Z,2.20
2022-08-05T08:18:08.155Z,2.47
2022-08-05T08:22:16.814Z,2.30
2022-08-05T08:30:40.858Z,2.25
2022-08-05T08:34:50.472Z,2.30
2022-08-05T08:44:57.860Z,2.78
2022-08-05T08:48:05.436Z,2.40
2022-08-05T08:52:02.982Z,2.60
2022-08-05T08:56:08.403Z,2.83
2022-08-05T09:00:13.342Z,2.35
2022-08-05T09:04:18.884Z,2.50
2022-08-05T09:08:26.703Z,2.88
2022-08-05T09:12:30.306Z,2.60
2022-08-05T09:16:34.513Z,2.88
2022-08-05T09:20:38.308Z,2.70
2022-08-05T09:24:41.020Z,2.83
2022-08-05T09:28:43.800Z,2.70
2022-08-05T09:32:47.819Z,3.08
2022-08-05T09:36:54.821Z,2.63
2022-08-05T09:41:06.692Z,2.90
2022-08-05T09:45:17.676Z,3.10
2022-08-05T09:49:40.432Z,4.05
2022-08-05T09:53:59.195Z,2.90
2022-08-05T09:58:11.897Z,3.50
2022-08-05T10:02:14.438Z,3.25
2022-08-05T10:06:24.421Z,3.40
2022-08-05T10:10:32.575Z,3.65
2022-08-05T10:14:35.247Z,3.50
2022-08-05T10:18:39.262Z,2.92
2022-08-05T10:22:48.763Z,2.80
2022-08-05T10:27:00.231Z,3.00
2022-08-05T10:32:59.382Z,2.97
2022-08-05T10:35:33.814Z,2.90
2022-08-05T10:39:58.931Z,2.80
2022-08-05T10:44:10.560Z,2.95
2022-08-05T10:48:38.366Z,3.00
2022-08-05T10:52:58.717Z,2.90
2022-08-05T10:57:02.875Z,2.85
2022-08-05T11:01:07.041Z,2.72
2022-08-05T11:05:11.123Z,2.58
2022-08-05T11:09:24.491Z,2.95
2022-08-05T11:13:54.987Z,2.60
2022-08-05T11:18:09.909Z,2.80
2022-08-05T11:22:42.176Z,3.28
2022-08-05T11:26:49.785Z,3.10
2022-08-05T11:31:58.166Z,3.33
2022-08-05T11:36:04.433Z,4.03
2022-08-05T11:40:11.439Z,5.00
2022-08-05T11:44:40.954Z,6.10
2022-08-05T11:48:45.886Z,6.45
2022-08-05T11:52:49.692Z,7.68
2022-08-05T11:56:55.596Z,8.23
2022-08-05T12:01:06.619Z,8.50
2022-08-05T12:05:32.263Z,9.35
2022-08-05T12:09:53.678Z,9.85
2022-08-05T12:13:58.603Z,10.48
2022-08-05T12:18:04.274Z,10.48
2022-08-05T12:22:17.977Z,9.50
2022-08-05T12:26:23.190Z,9.13
2022-08-05T12:30:32.068Z,6.68
2022-08-05T12:34:36.937Z,7.50
2022-08-05T12:38:41.724Z,7.28
2022-08-05T12:42:44.613Z,7.15
2022-08-05T12:46:54.268Z,6.10
2022-08-05T12:52:10.224Z,6.47
2022-08-05T12:55:35.306Z,6.13
2022-08-05T13:00:08.247Z,5.30
2022-08-05T13:04:09.624Z,5.93
2022-08-05T13:08:12.785Z,4.25
2022-08-05T13:12:23.487Z,4.00
2022-08-05T13:16:31.241Z,4.30
2022-08-05T13:20:40.211Z,4.05
2022-08-05T13:24:57.520Z,3.28
2022-08-05T13:29:01.781Z,3.58
2022-08-05T13:33:04.884Z,3.30
2022-08-05T13:37:07.431Z,2.80
2022-08-05T13:41:10.301Z,2.85
2022-08-05T13:45:14.191Z,3.10
2022-08-05T13:49:24.060Z,3.30
2022-08-05T13:53:26.576Z,2.30
2022-08-05T13:57:50.652Z,2.90
2022-08-05T14:01:58.775Z,3.03
2022-08-05T14:06:25.161Z,2.75
2022-08-05T14:10:28.710Z,2.50
2022-08-05T14:14:33.800Z,2.47
2022-08-05T14:18:37.981Z,2.47
2022-08-05T14:22:40.672Z,2.40
2022-08-05T14:27:15.724Z,2.80
2022-08-05T14:31:17.489Z,2.50
2022-08-05T14:35:51.343Z,2.23
2022-08-05T14:39:56.766Z,2.13
2022-08-05T14:44:09.455Z,2.30
2022-08-05T14:48:32.643Z,2.22
2022-08-05T14:52:52.474Z,2.70
2022-08-05T14:56:56.381Z,2.20
2022-08-05T15:01:00.256Z,2.17
2022-08-05T15:05:08.516Z,1.80
2022-08-05T15:09:50.561Z,1.52
2022-08-05T15:13:46.410Z,1.60
2022-08-05T15:17:52.733Z,1.67
2022-08-05T15:21:58.002Z,1.70
2022-08-05T15:26:04.225Z,1.70
2022-08-05T15:30:07.956Z,1.67
2022-08-05T15:34:31.506Z,1.90
2022-08-05T15:38:40.900Z,1.80
2022-08-05T15:42:54.260Z,1.80
2022-08-05T15:47:01.934Z,2.40
2022-08-05T15:51:05.914Z,1.90
2022-08-05T15:55:15.538Z,2.00
2022-08-05T15:59:22.302Z,2.13
2022-08-05T16:03:26.828Z,1.95
2022-08-05T16:07:29.778Z,2.10
2022-08-05T16:20:03.285Z,2.22
2022-08-05T16:24:12.727Z,1.60
2022-08-05T16:28:15.708Z,1.95
2022-08-05T16:32:23.335Z,1.88
2022-08-05T16:36:31.880Z,1.80
2022-08-05T16:40:34.464Z,1.77
2022-08-05T16:44:37.594Z,1.88
2022-08-05T16:48:41.644Z,1.60
2022-08-05T16:52:46.071Z,1.40
2022-08-05T16:56:52.246Z,1.50
2022-08-05T17:00:55.094Z,1.83
2022-08-05T17:04:58.992Z,1.50
2022-08-05T17:09:01.564Z,1.70
2022-08-05T17:17:14.491Z,1.40
2022-08-05T17:21:23.498Z,1.60
2022-08-05T17:25:39.304Z,1.40
2022-08-05T17:29:43.043Z,1.98
2022-08-05T17:33:48.575Z,1.70
2022-08-05T17:38:00.634Z,2.42
2022-08-05T17:42:18.348Z,1.95
2022-08-05T17:46:23.698Z,1.80
2022-08-05T17:50:30.462Z,1.70
2022-08-05T17:54:35.505Z,1.73
2022-08-05T17:58:39.499Z,1.83
2022-08-05T18:02:42.087Z,1.73
2022-08-05T18:06:45.805Z,1.55
2022-08-05T18:10:49.825Z,1.85
2022-08-05T18:14:52.442Z,1.88
2022-08-05T18:18:54.987Z,1.70
2022-08-05T18:23:00.704Z,1.52
2022-08-05T18:27:18.751Z,1.45
2022-08-05T18:31:23.433Z,1.52
2022-08-05T18:35:28.276Z,1.50
2022-08-05T18:41:53.730Z,1.30
2022-08-05T18:44:13.333Z,1.30
2022-08-05T18:48:17.546Z,1.58
2022-08-05T18:52:33.561Z,1.52
2022-08-05T18:56:38.366Z,1.75
2022-08-05T19:00:42.289Z,2.08
2022-08-05T19:05:01.227Z,1.70
2022-08-05T19:09:05.832Z,1.70
2022-08-05T19:13:12.335Z,1.70
2022-08-05T19:17:19.786Z,1.90
2022-08-05T19:21:27.360Z,2.00
2022-08-05T19:25:39.248Z,2.10
2022-08-05T19:29:46.759Z,1.75
2022-08-05T19:33:56.664Z,2.00
2022-08-05T19:38:06.123Z,1.70
2022-08-05T19:42:09.641Z,1.60
2022-08-05T19:46:30.011Z,1.30
2022-08-05T19:50:34.933Z,1.40
2022-08-05T19:54:37.495Z,1.20
2022-08-05T19:58:53.403Z,1.27
2022-08-05T20:02:57.213Z,1.10
2022-08-05T20:07:02.696Z,1.15
2022-08-05T20:11:05.223Z,1.10
2022-08-05T20:15:09.416Z,0.98
2022-08-05T20:19:11.963Z,0.70
2022-08-05T20:23:18.342Z,0.77
2022-08-05T20:27:26.916Z,0.88
2022-08-05T20:31:42.086Z,0.60
2022-08-05T20:35:52.701Z,0.68
2022-08-05T20:39:58.285Z,0.70
2022-08-05T20:44:17.641Z,0.70
2022-08-05T20:48:23.998Z,0.60
2022-08-05T20:52:27.575Z,0.85
2022-08-05T20:56:35.424Z,0.70
2022-08-05T21:00:54.520Z,0.77
2022-08-05T21:04:57.562Z,0.70
2022-08-05T21:09:05.566Z,0.70
2022-08-05T21:13:15.905Z,0.70
2022-08-05T21:17:28.905Z,0.60
2022-08-05T21:21:44.216Z,0.80
2022-08-05T21:25:55.291Z,0.65
2022-08-05T21:30:01.963Z,0.88
2022-08-05T21:34:04.721Z,0.70
2022-08-05T21:38:10.192Z,0.80
2022-08-05T21:42:30.648Z,0.80
2022-08-05T21:46:39.553Z,1.00
2022-08-05T21:50:42.412Z,0.85
2022-08-05T21:54:57.650Z,0.60
2022-08-05T21:59:24.242Z,0.63
2022-08-05T22:03:52.446Z,0.60
2022-08-05T22:08:02.026Z,0.77
2022-08-05T22:12:10.700Z,0.75
2022-08-05T22:16:39.489Z,0.70
2022-08-05T22:20:38.940Z,0.80
2022-08-05T22:24:59.914Z,0.90
2022-08-05T22:29:02.719Z,0.65
2022-08-05T22:33:15.564Z,0.70
2022-08-05T22:37:19.937Z,0.73
2022-08-05T22:41:26.262Z,0.80
2022-08-05T22:45:46.076Z,1.10
2022-08-05T22:50:20.849Z,1.10
2022-08-05T22:54:13.558Z,1.10
2022-08-05T22:58:16.567Z,0.90
2022-08-05T23:02:31.072Z,0.90
2022-08-05T23:06:33.779Z,1.20
2022-08-05T23:10:38.066Z,1.03
2022-08-05T23:14:43.799Z,1.10
2022-08-05T23:18:46.429Z,1.10
2022-08-05T23:22:55.615Z,0.90
2022-08-05T23:27:00.639Z,1.02
2022-08-05T23:31:16.036Z,1.00
2022-08-05T23:35:20.348Z,1.20
2022-08-05T23:39:32.495Z,1.05
2022-08-05T23:44:03.561Z,1.10
2022-08-05T23:48:09.676Z,1.00
2022-08-05T23:52:29.057Z,1.15
2022-08-05T23:56:33.410Z,1.33
